sensor_id;sensor_type;location;lat;lon;timestamp;P1;durP1;ratioP1;P2;durP2;ratioP2
72611;SDS011;60655;52.182;4.474;2023-05-14T00:01:32;27.92;;;14.60;;
72611;SDS011;60655;52.182;4.474;2023-05-14T00:03:33;29.45;;;14.07;;
72611;SDS011;60655;52.182;4.474;2023-05-14T00:05:34;28.83;;;14.45;;
72611;SDS011;60655;52.182;4.474;2023-05-14T00:07:35;26.42;;;13.10;;
72611;SDS011;60655;52.182;4.474;2023-05-14T00:09:36;24.70;;;13.25;;
72611;SDS011;60655;52.182;4.474;2023-05-14T00:11:37;26.70;;;12.80;;
72611;SDS011;60655;52.182;4.474;2023-05-14T00:13:38;26.63;;;13.70;;
72611;SDS011;60655;52.182;4.474;2023-05-14T00:15:39;29.17;;;13.30;;
72611;SDS011;60655;52.182;4.474;2023-05-14T00:17:40;24.83;;;13.10;;
72611;SDS011;60655;52.182;4.474;2023-05-14T00:19:42;22.48;;;13.15;;
72611;SDS011;60655;52.182;4.474;2023-05-14T00:21:43;25.10;;;13.18;;
72611;SDS011;60655;52.182;4.474;2023-05-14T00:23:44;24.77;;;13.18;;
72611;SDS011;60655;52.182;4.474;2023-05-14T00:25:45;24.00;;;12.00;;
72611;SDS011;60655;52.182;4.474;2023-05-14T00:27:45;28.00;;;13.32;;
72611;SDS011;60655;52.182;4.474;2023-05-14T00:29:46;27.60;;;13.27;;
72611;SDS011;60655;52.182;4.474;2023-05-14T00:31:47;20.38;;;11.35;;
72611;SDS011;60655;52.182;4.474;2023-05-14T00:33:48;30.00;;;14.15;;
72611;SDS011;60655;52.182;4.474;2023-05-14T00:35:49;28.42;;;13.80;;
72611;SDS011;60655;52.182;4.474;2023-05-14T00:37:51;33.70;;;14.82;;
72611;SDS011;60655;52.182;4.474;2023-05-14T00:39:52;31.35;;;14.02;;
72611;SDS011;60655;52.182;4.474;2023-05-14T00:41:53;32.03;;;13.00;;
72611;SDS011;60655;52.182;4.474;2023-05-14T00:43:54;32.35;;;15.55;;
72611;SDS011;60655;52.182;4.474;2023-05-14T00:45:55;32.05;;;14.05;;
72611;SDS011;60655;52.182;4.474;2023-05-14T00:47:56;31.73;;;15.43;;
72611;SDS011;60655;52.182;4.474;2023-05-14T00:49:57;32.78;;;14.77;;
72611;SDS011;60655;52.182;4.474;2023-05-14T00:51:58;32.60;;;14.40;;
72611;SDS011;60655;52.182;4.474;2023-05-14T00:54:00;32.28;;;15.02;;
72611;SDS011;60655;52.182;4.474;2023-05-14T00:56:01;34.92;;;15.70;;
72611;SDS011;60655;52.182;4.474;2023-05-14T00:58:03;39.00;;;15.55;;
72611;SDS011;60655;52.182;4.474;2023-05-14T01:00:09;35.72;;;14.25;;
72611;SDS011;60655;52.182;4.474;2023-05-14T01:02:10;30.73;;;15.32;;
72611;SDS011;60655;52.182;4.474;2023-05-14T01:04:11;34.97;;;15.85;;
72611;SDS011;60655;52.182;4.474;2023-05-14T01:10:56;29.30;;;12.95;;
72611;SDS011;60655;52.182;4.474;2023-05-14T01:15:30;30.92;;;13.40;;
72611;SDS011;60655;52.182;4.474;2023-05-14T01:17:33;31.80;;;12.98;;
72611;SDS011;60655;52.182;4.474;2023-05-14T01:19:40;33.58;;;13.82;;
72611;SDS011;60655;52.182;4.474;2023-05-14T01:21:43;27.60;;;13.32;;
72611;SDS011;60655;52.182;4.474;2023-05-14T01:23:44;32.03;;;13.73;;
72611;SDS011;60655;52.182;4.474;2023-05-14T01:25:45;31.40;;;14.18;;
72611;SDS011;60655;52.182;4.474;2023-05-14T01:28:05;30.30;;;13.88;;
72611;SDS011;60655;52.182;4.474;2023-05-14T01:32:23;26.27;;;13.38;;
72611;SDS011;60655;52.182;4.474;2023-05-14T01:34:25;32.75;;;14.18;;
72611;SDS011;60655;52.182;4.474;2023-05-14T01:36:29;29.55;;;14.93;;
72611;SDS011;60655;52.182;4.474;2023-05-14T01:38:31;29.15;;;13.75;;
72611;SDS011;60655;52.182;4.474;2023-05-14T01:40:33;32.15;;;13.75;;
72611;SDS011;60655;52.182;4.474;2023-05-14T01:42:36;26.98;;;12.77;;
72611;SDS011;60655;52.182;4.474;2023-05-14T01:44:37;35.65;;;15.05;;
72611;SDS011;60655;52.182;4.474;2023-05-14T01:46:39;39.83;;;15.27;;
72611;SDS011;60655;52.182;4.474;2023-05-14T01:48:39;27.05;;;13.60;;
72611;SDS011;60655;52.182;4.474;2023-05-14T01:50:41;35.50;;;14.25;;
72611;SDS011;60655;52.182;4.474;2023-05-14T01:52:42;30.65;;;14.63;;
72611;SDS011;60655;52.182;4.474;2023-05-14T01:54:43;29.13;;;14.98;;
72611;SDS011;60655;52.182;4.474;2023-05-14T01:56:43;33.22;;;15.10;;
72611;SDS011;60655;52.182;4.474;2023-05-14T01:58:44;31.17;;;14.70;;
72611;SDS011;60655;52.182;4.474;2023-05-14T02:00:45;33.58;;;14.77;;
72611;SDS011;60655;52.182;4.474;2023-05-14T02:02:46;37.88;;;15.75;;
72611;SDS011;60655;52.182;4.474;2023-05-14T02:04:48;34.67;;;14.30;;
72611;SDS011;60655;52.182;4.474;2023-05-14T02:06:49;31.38;;;13.50;;
72611;SDS011;60655;52.182;4.474;2023-05-14T02:08:50;31.90;;;14.15;;
72611;SDS011;60655;52.182;4.474;2023-05-14T02:10:51;30.52;;;13.88;;
72611;SDS011;60655;52.182;4.474;2023-05-14T02:12:52;27.80;;;12.40;;
72611;SDS011;60655;52.182;4.474;2023-05-14T02:14:53;34.45;;;13.57;;
72611;SDS011;60655;52.182;4.474;2023-05-14T02:16:54;32.13;;;13.93;;
72611;SDS011;60655;52.182;4.474;2023-05-14T02:18:55;32.55;;;13.15;;
72611;SDS011;60655;52.182;4.474;2023-05-14T02:20:56;34.40;;;14.30;;
72611;SDS011;60655;52.182;4.474;2023-05-14T02:22:57;30.83;;;13.32;;
72611;SDS011;60655;52.182;4.474;2023-05-14T02:24:58;35.80;;;13.25;;
72611;SDS011;60655;52.182;4.474;2023-05-14T02:26:59;34.42;;;13.77;;
72611;SDS011;60655;52.182;4.474;2023-05-14T02:29:00;33.08;;;12.82;;
72611;SDS011;60655;52.182;4.474;2023-05-14T02:31:01;29.00;;;12.43;;
72611;SDS011;60655;52.182;4.474;2023-05-14T02:33:02;40.38;;;12.73;;
72611;SDS011;60655;52.182;4.474;2023-05-14T02:35:03;29.05;;;13.80;;
72611;SDS011;60655;52.182;4.474;2023-05-14T02:37:04;27.23;;;11.50;;
72611;SDS011;60655;52.182;4.474;2023-05-14T02:39:05;29.13;;;11.85;;
72611;SDS011;60655;52.182;4.474;2023-05-14T02:41:06;29.77;;;11.93;;
72611;SDS011;60655;52.182;4.474;2023-05-14T02:43:07;35.13;;;13.68;;
72611;SDS011;60655;52.182;4.474;2023-05-14T02:45:08;29.48;;;13.23;;
72611;SDS011;60655;52.182;4.474;2023-05-14T02:47:09;29.50;;;13.93;;
72611;SDS011;60655;52.182;4.474;2023-05-14T02:49:10;31.67;;;12.73;;
72611;SDS011;60655;52.182;4.474;2023-05-14T02:51:11;26.15;;;10.95;;
72611;SDS011;60655;52.182;4.474;2023-05-14T02:53:12;28.25;;;13.35;;
72611;SDS011;60655;52.182;4.474;2023-05-14T02:55:13;33.50;;;13.25;;
72611;SDS011;60655;52.182;4.474;2023-05-14T02:57:14;31.15;;;13.50;;
72611;SDS011;60655;52.182;4.474;2023-05-14T02:59:15;31.33;;;13.32;;
72611;SDS011;60655;52.182;4.474;2023-05-14T03:01:16;34.85;;;13.73;;
72611;SDS011;60655;52.182;4.474;2023-05-14T03:03:18;31.13;;;12.77;;
72611;SDS011;60655;52.182;4.474;2023-05-14T03:05:19;28.67;;;13.75;;
72611;SDS011;60655;52.182;4.474;2023-05-14T03:07:20;31.00;;;13.63;;
72611;SDS011;60655;52.182;4.474;2023-05-14T03:09:21;41.10;;;12.85;;
72611;SDS011;60655;52.182;4.474;2023-05-14T03:11:22;28.88;;;13.38;;
72611;SDS011;60655;52.182;4.474;2023-05-14T03:13:23;29.02;;;12.93;;
72611;SDS011;60655;52.182;4.474;2023-05-14T03:15:24;30.45;;;13.73;;
72611;SDS011;60655;52.182;4.474;2023-05-14T03:17:25;52.45;;;13.20;;
72611;SDS011;60655;52.182;4.474;2023-05-14T03:19:26;33.75;;;13.63;;
72611;SDS011;60655;52.182;4.474;2023-05-14T03:21:27;28.88;;;13.52;;
72611;SDS011;60655;52.182;4.474;2023-05-14T03:23:28;30.67;;;13.50;;
72611;SDS011;60655;52.182;4.474;2023-05-14T03:25:31;32.58;;;13.82;;
72611;SDS011;60655;52.182;4.474;2023-05-14T03:27:33;26.35;;;13.70;;
72611;SDS011;60655;52.182;4.474;2023-05-14T03:29:34;35.67;;;15.13;;
72611;SDS011;60655;52.182;4.474;2023-05-14T03:31:35;27.65;;;11.93;;
72611;SDS011;60655;52.182;4.474;2023-05-14T03:33:36;28.42;;;14.20;;
72611;SDS011;60655;52.182;4.474;2023-05-14T03:35:37;31.35;;;13.82;;
72611;SDS011;60655;52.182;4.474;2023-05-14T03:37:38;38.10;;;15.90;;
72611;SDS011;60655;52.182;4.474;2023-05-14T03:39:39;34.50;;;13.65;;
72611;SDS011;60655;52.182;4.474;2023-05-14T03:41:40;34.85;;;15.05;;
72611;SDS011;60655;52.182;4.474;2023-05-14T03:43:41;37.33;;;14.02;;
72611;SDS011;60655;52.182;4.474;2023-05-14T03:45:42;35.47;;;15.68;;
72611;SDS011;60655;52.182;4.474;2023-05-14T03:47:43;38.83;;;14.68;;
72611;SDS011;60655;52.182;4.474;2023-05-14T03:49:44;35.55;;;13.88;;
72611;SDS011;60655;52.182;4.474;2023-05-14T03:51:45;40.33;;;15.27;;
72611;SDS011;60655;52.182;4.474;2023-05-14T03:53:46;39.95;;;15.10;;
72611;SDS011;60655;52.182;4.474;2023-05-14T03:55:47;33.35;;;14.95;;
72611;SDS011;60655;52.182;4.474;2023-05-14T03:57:48;40.38;;;15.52;;
72611;SDS011;60655;52.182;4.474;2023-05-14T03:59:49;35.63;;;14.45;;
72611;SDS011;60655;52.182;4.474;2023-05-14T04:01:50;37.67;;;15.45;;
72611;SDS011;60655;52.182;4.474;2023-05-14T04:03:51;43.60;;;15.38;;
72611;SDS011;60655;52.182;4.474;2023-05-14T04:05:52;38.10;;;15.15;;
72611;SDS011;60655;52.182;4.474;2023-05-14T04:07:53;37.58;;;15.50;;
72611;SDS011;60655;52.182;4.474;2023-05-14T04:09:54;41.03;;;14.70;;
72611;SDS011;60655;52.182;4.474;2023-05-14T04:11:55;36.10;;;15.27;;
72611;SDS011;60655;52.182;4.474;2023-05-14T04:13:56;40.03;;;16.13;;
72611;SDS011;60655;52.182;4.474;2023-05-14T04:15:57;32.75;;;14.00;;
72611;SDS011;60655;52.182;4.474;2023-05-14T04:17:58;37.90;;;15.05;;
72611;SDS011;60655;52.182;4.474;2023-05-14T04:19:59;39.22;;;17.20;;
72611;SDS011;60655;52.182;4.474;2023-05-14T04:21:59;38.78;;;16.45;;
72611;SDS011;60655;52.182;4.474;2023-05-14T04:24:00;39.22;;;15.75;;
72611;SDS011;60655;52.182;4.474;2023-05-14T04:26:01;40.03;;;16.35;;
72611;SDS011;60655;52.182;4.474;2023-05-14T04:28:03;45.08;;;17.10;;
72611;SDS011;60655;52.182;4.474;2023-05-14T04:30:04;38.97;;;15.93;;
72611;SDS011;60655;52.182;4.474;2023-05-14T04:32:06;40.45;;;17.48;;
72611;SDS011;60655;52.182;4.474;2023-05-14T04:34:07;37.45;;;15.32;;
72611;SDS011;60655;52.182;4.474;2023-05-14T04:36:08;44.63;;;18.15;;
72611;SDS011;60655;52.182;4.474;2023-05-14T04:38:09;35.03;;;14.57;;
72611;SDS011;60655;52.182;4.474;2023-05-14T04:40:10;46.97;;;17.33;;
72611;SDS011;60655;52.182;4.474;2023-05-14T04:42:12;36.65;;;15.27;;
72611;SDS011;60655;52.182;4.474;2023-05-14T04:44:13;44.72;;;17.10;;
72611;SDS011;60655;52.182;4.474;2023-05-14T04:46:13;38.83;;;18.05;;
72611;SDS011;60655;52.182;4.474;2023-05-14T04:48:15;44.95;;;17.30;;
72611;SDS011;60655;52.182;4.474;2023-05-14T04:50:16;40.00;;;18.05;;
72611;SDS011;60655;52.182;4.474;2023-05-14T04:52:17;42.33;;;18.75;;
72611;SDS011;60655;52.182;4.474;2023-05-14T04:54:18;49.63;;;18.17;;
72611;SDS011;60655;52.182;4.474;2023-05-14T04:56:18;56.05;;;21.73;;
72611;SDS011;60655;52.182;4.474;2023-05-14T04:58:20;55.60;;;21.38;;
72611;SDS011;60655;52.182;4.474;2023-05-14T05:00:23;61.78;;;23.13;;
72611;SDS011;60655;52.182;4.474;2023-05-14T05:02:24;56.10;;;21.52;;
72611;SDS011;60655;52.182;4.474;2023-05-14T05:04:26;57.38;;;21.88;;
72611;SDS011;60655;52.182;4.474;2023-05-14T05:06:27;61.42;;;22.70;;
72611;SDS011;60655;52.182;4.474;2023-05-14T05:08:28;58.20;;;21.17;;
72611;SDS011;60655;52.182;4.474;2023-05-14T05:10:29;66.97;;;23.98;;
72611;SDS011;60655;52.182;4.474;2023-05-14T05:12:30;55.25;;;21.08;;
72611;SDS011;60655;52.182;4.474;2023-05-14T05:14:31;56.38;;;21.13;;
72611;SDS011;60655;52.182;4.474;2023-05-14T05:16:32;57.40;;;21.33;;
72611;SDS011;60655;52.182;4.474;2023-05-14T05:18:33;57.22;;;21.20;;
72611;SDS011;60655;52.182;4.474;2023-05-14T05:20:34;48.00;;;18.55;;
72611;SDS011;60655;52.182;4.474;2023-05-14T05:22:35;49.92;;;21.33;;
72611;SDS011;60655;52.182;4.474;2023-05-14T05:24:36;54.33;;;21.92;;
72611;SDS011;60655;52.182;4.474;2023-05-14T05:26:37;46.15;;;20.75;;
72611;SDS011;60655;52.182;4.474;2023-05-14T05:28:38;49.85;;;20.73;;
72611;SDS011;60655;52.182;4.474;2023-05-14T05:30:39;52.88;;;21.27;;
72611;SDS011;60655;52.182;4.474;2023-05-14T05:32:40;47.60;;;20.48;;
72611;SDS011;60655;52.182;4.474;2023-05-14T05:34:41;43.15;;;19.88;;
72611;SDS011;60655;52.182;4.474;2023-05-14T05:36:42;43.47;;;19.58;;
72611;SDS011;60655;52.182;4.474;2023-05-14T05:38:43;40.53;;;18.73;;
72611;SDS011;60655;52.182;4.474;2023-05-14T05:40:44;36.50;;;17.58;;
72611;SDS011;60655;52.182;4.474;2023-05-14T05:42:45;35.05;;;15.85;;
72611;SDS011;60655;52.182;4.474;2023-05-14T05:44:46;40.72;;;16.42;;
72611;SDS011;60655;52.182;4.474;2023-05-14T05:46:47;40.28;;;17.00;;
72611;SDS011;60655;52.182;4.474;2023-05-14T05:48:48;35.15;;;16.02;;
72611;SDS011;60655;52.182;4.474;2023-05-14T05:50:49;31.73;;;15.50;;
72611;SDS011;60655;52.182;4.474;2023-05-14T05:52:49;31.23;;;14.85;;
72611;SDS011;60655;52.182;4.474;2023-05-14T05:54:51;31.85;;;15.02;;
72611;SDS011;60655;52.182;4.474;2023-05-14T05:56:52;28.08;;;13.57;;
72611;SDS011;60655;52.182;4.474;2023-05-14T05:58:53;28.08;;;13.88;;
72611;SDS011;60655;52.182;4.474;2023-05-14T06:00:54;25.17;;;13.07;;
72611;SDS011;60655;52.182;4.474;2023-05-14T06:02:57;27.65;;;13.00;;
72611;SDS011;60655;52.182;4.474;2023-05-14T06:04:58;25.95;;;13.00;;
72611;SDS011;60655;52.182;4.474;2023-05-14T06:06:58;25.35;;;13.25;;
72611;SDS011;60655;52.182;4.474;2023-05-14T06:08:59;31.42;;;12.85;;
72611;SDS011;60655;52.182;4.474;2023-05-14T06:11:01;28.35;;;13.75;;
72611;SDS011;60655;52.182;4.474;2023-05-14T06:13:02;26.42;;;12.95;;
72611;SDS011;60655;52.182;4.474;2023-05-14T06:15:03;25.60;;;13.20;;
72611;SDS011;60655;52.182;4.474;2023-05-14T06:17:04;32.08;;;13.60;;
72611;SDS011;60655;52.182;4.474;2023-05-14T06:19:05;32.08;;;13.55;;
72611;SDS011;60655;52.182;4.474;2023-05-14T06:21:07;28.70;;;13.90;;
72611;SDS011;60655;52.182;4.474;2023-05-14T06:23:08;27.85;;;12.70;;
72611;SDS011;60655;52.182;4.474;2023-05-14T06:25:11;24.85;;;12.07;;
72611;SDS011;60655;52.182;4.474;2023-05-14T06:27:12;28.95;;;13.13;;
72611;SDS011;60655;52.182;4.474;2023-05-14T06:29:13;25.30;;;13.27;;
72611;SDS011;60655;52.182;4.474;2023-05-14T06:31:14;25.45;;;11.88;;
72611;SDS011;60655;52.182;4.474;2023-05-14T06:33:15;21.13;;;10.65;;
72611;SDS011;60655;52.182;4.474;2023-05-14T06:35:19;25.05;;;11.43;;
72611;SDS011;60655;52.182;4.474;2023-05-14T06:37:20;23.60;;;11.30;;
72611;SDS011;60655;52.182;4.474;2023-05-14T06:39:21;25.23;;;11.27;;
72611;SDS011;60655;52.182;4.474;2023-05-14T06:41:22;24.17;;;11.52;;
72611;SDS011;60655;52.182;4.474;2023-05-14T06:43:23;27.88;;;11.98;;
72611;SDS011;60655;52.182;4.474;2023-05-14T06:45:24;23.13;;;12.73;;
72611;SDS011;60655;52.182;4.474;2023-05-14T06:47:25;29.70;;;11.63;;
72611;SDS011;60655;52.182;4.474;2023-05-14T06:49:26;26.67;;;12.38;;
72611;SDS011;60655;52.182;4.474;2023-05-14T06:51:27;25.75;;;11.48;;
72611;SDS011;60655;52.182;4.474;2023-05-14T06:53:28;29.02;;;12.93;;
72611;SDS011;60655;52.182;4.474;2023-05-14T06:55:29;24.35;;;12.38;;
72611;SDS011;60655;52.182;4.474;2023-05-14T06:57:30;24.17;;;12.23;;
72611;SDS011;60655;52.182;4.474;2023-05-14T06:59:30;20.35;;;10.15;;
72611;SDS011;60655;52.182;4.474;2023-05-14T07:01:32;24.20;;;10.75;;
72611;SDS011;60655;52.182;4.474;2023-05-14T07:03:32;27.27;;;11.18;;
72611;SDS011;60655;52.182;4.474;2023-05-14T07:05:33;21.58;;;10.93;;
72611;SDS011;60655;52.182;4.474;2023-05-14T07:07:34;27.48;;;9.98;;
72611;SDS011;60655;52.182;4.474;2023-05-14T07:09:35;21.42;;;11.10;;
72611;SDS011;60655;52.182;4.474;2023-05-14T07:11:36;20.20;;;10.40;;
72611;SDS011;60655;52.182;4.474;2023-05-14T07:13:37;25.30;;;10.48;;
72611;SDS011;60655;52.182;4.474;2023-05-14T07:15:39;34.22;;;15.88;;
72611;SDS011;60655;52.182;4.474;2023-05-14T07:17:40;21.38;;;9.57;;
72611;SDS011;60655;52.182;4.474;2023-05-14T07:19:41;23.70;;;10.73;;
72611;SDS011;60655;52.182;4.474;2023-05-14T07:21:42;24.27;;;10.15;;
72611;SDS011;60655;52.182;4.474;2023-05-14T07:23:43;18.38;;;10.57;;
72611;SDS011;60655;52.182;4.474;2023-05-14T07:25:43;18.35;;;8.90;;
72611;SDS011;60655;52.182;4.474;2023-05-14T07:27:44;22.08;;;9.82;;
72611;SDS011;60655;52.182;4.474;2023-05-14T07:29:45;22.73;;;9.55;;
72611;SDS011;60655;52.182;4.474;2023-05-14T07:31:46;22.15;;;9.68;;
72611;SDS011;60655;52.182;4.474;2023-05-14T07:33:47;20.30;;;9.88;;
72611;SDS011;60655;52.182;4.474;2023-05-14T07:35:48;18.65;;;9.05;;
72611;SDS011;60655;52.182;4.474;2023-05-14T07:37:50;24.92;;;8.88;;
72611;SDS011;60655;52.182;4.474;2023-05-14T07:39:52;22.80;;;9.50;;
72611;SDS011;60655;52.182;4.474;2023-05-14T07:41:53;17.73;;;7.88;;
72611;SDS011;60655;52.182;4.474;2023-05-14T07:43:57;18.55;;;9.27;;
72611;SDS011;60655;52.182;4.474;2023-05-14T07:45:58;18.75;;;9.90;;
72611;SDS011;60655;52.182;4.474;2023-05-14T07:47:59;22.38;;;9.43;;
72611;SDS011;60655;52.182;4.474;2023-05-14T07:50:00;18.23;;;9.55;;
72611;SDS011;60655;52.182;4.474;2023-05-14T07:52:01;22.73;;;9.02;;
72611;SDS011;60655;52.182;4.474;2023-05-14T07:54:02;21.23;;;8.50;;
72611;SDS011;60655;52.182;4.474;2023-05-14T07:56:03;17.95;;;8.35;;
72611;SDS011;60655;52.182;4.474;2023-05-14T07:58:04;16.92;;;7.63;;
72611;SDS011;60655;52.182;4.474;2023-05-14T08:00:06;17.25;;;8.05;;
72611;SDS011;60655;52.182;4.474;2023-05-14T08:02:08;17.95;;;8.30;;
72611;SDS011;60655;52.182;4.474;2023-05-14T08:04:10;24.08;;;7.32;;
72611;SDS011;60655;52.182;4.474;2023-05-14T08:06:11;23.48;;;8.65;;
72611;SDS011;60655;52.182;4.474;2023-05-14T08:08:12;20.75;;;7.78;;
72611;SDS011;60655;52.182;4.474;2023-05-14T08:10:13;18.77;;;7.82;;
72611;SDS011;60655;52.182;4.474;2023-05-14T08:12:14;28.27;;;8.43;;
72611;SDS011;60655;52.182;4.474;2023-05-14T08:14:16;17.13;;;6.97;;
72611;SDS011;60655;52.182;4.474;2023-05-14T08:16:17;14.40;;;6.35;;
72611;SDS011;60655;52.182;4.474;2023-05-14T08:18:18;17.40;;;6.82;;
72611;SDS011;60655;52.182;4.474;2023-05-14T08:20:19;14.82;;;6.95;;
72611;SDS011;60655;52.182;4.474;2023-05-14T08:22:20;17.02;;;7.05;;
72611;SDS011;60655;52.182;4.474;2023-05-14T08:24:21;18.50;;;7.75;;
72611;SDS011;60655;52.182;4.474;2023-05-14T08:26:22;26.08;;;7.43;;
72611;SDS011;60655;52.182;4.474;2023-05-14T08:28:23;15.95;;;6.45;;
72611;SDS011;60655;52.182;4.474;2023-05-14T08:30:24;14.57;;;6.90;;
72611;SDS011;60655;52.182;4.474;2023-05-14T08:32:25;16.20;;;7.28;;
72611;SDS011;60655;52.182;4.474;2023-05-14T08:34:26;23.35;;;7.35;;
72611;SDS011;60655;52.182;4.474;2023-05-14T08:36:28;13.90;;;6.55;;
72611;SDS011;60655;52.182;4.474;2023-05-14T08:38:29;19.30;;;6.70;;
72611;SDS011;60655;52.182;4.474;2023-05-14T08:40:30;22.30;;;7.05;;
72611;SDS011;60655;52.182;4.474;2023-05-14T08:42:31;17.42;;;6.45;;
72611;SDS011;60655;52.182;4.474;2023-05-14T08:44:37;17.77;;;7.43;;
72611;SDS011;60655;52.182;4.474;2023-05-14T08:46:45;15.45;;;6.78;;
72611;SDS011;60655;52.182;4.474;2023-05-14T08:48:56;16.67;;;7.15;;
72611;SDS011;60655;52.182;4.474;2023-05-14T08:51:04;22.23;;;7.43;;
72611;SDS011;60655;52.182;4.474;2023-05-14T08:53:07;16.88;;;6.82;;
72611;SDS011;60655;52.182;4.474;2023-05-14T08:55:08;15.43;;;6.68;;
72611;SDS011;60655;52.182;4.474;2023-05-14T08:57:09;13.90;;;7.88;;
72611;SDS011;60655;52.182;4.474;2023-05-14T08:59:11;14.65;;;6.97;;
72611;SDS011;60655;52.182;4.474;2023-05-14T09:01:12;17.35;;;7.00;;
72611;SDS011;60655;52.182;4.474;2023-05-14T09:03:13;17.83;;;8.05;;
72611;SDS011;60655;52.182;4.474;2023-05-14T09:05:16;23.00;;;7.65;;
72611;SDS011;60655;52.182;4.474;2023-05-14T09:07:19;17.92;;;7.65;;
72611;SDS011;60655;52.182;4.474;2023-05-14T09:09:21;15.90;;;7.28;;
72611;SDS011;60655;52.182;4.474;2023-05-14T09:11:22;19.20;;;7.53;;
72611;SDS011;60655;52.182;4.474;2023-05-14T09:13:24;17.90;;;7.13;;
72611;SDS011;60655;52.182;4.474;2023-05-14T09:15:25;19.73;;;7.57;;
72611;SDS011;60655;52.182;4.474;2023-05-14T09:17:28;19.85;;;8.65;;
72611;SDS011;60655;52.182;4.474;2023-05-14T09:19:29;18.58;;;7.90;;
72611;SDS011;60655;52.182;4.474;2023-05-14T09:21:30;16.60;;;8.38;;
72611;SDS011;60655;52.182;4.474;2023-05-14T09:23:32;21.80;;;8.82;;
72611;SDS011;60655;52.182;4.474;2023-05-14T09:25:34;23.63;;;7.45;;
72611;SDS011;60655;52.182;4.474;2023-05-14T09:27:35;19.05;;;7.25;;
72611;SDS011;60655;52.182;4.474;2023-05-14T09:29:36;19.88;;;7.20;;
72611;SDS011;60655;52.182;4.474;2023-05-14T09:31:37;17.67;;;7.50;;
72611;SDS011;60655;52.182;4.474;2023-05-14T09:33:38;22.70;;;7.45;;
72611;SDS011;60655;52.182;4.474;2023-05-14T09:35:39;19.25;;;7.57;;
72611;SDS011;60655;52.182;4.474;2023-05-14T09:37:43;18.92;;;7.38;;
72611;SDS011;60655;52.182;4.474;2023-05-14T09:39:46;15.32;;;6.88;;
72611;SDS011;60655;52.182;4.474;2023-05-14T09:41:47;15.75;;;7.00;;
72611;SDS011;60655;52.182;4.474;2023-05-14T09:43:48;18.67;;;6.80;;
72611;SDS011;60655;52.182;4.474;2023-05-14T09:45:50;15.23;;;7.22;;
72611;SDS011;60655;52.182;4.474;2023-05-14T09:47:52;20.98;;;7.85;;
72611;SDS011;60655;52.182;4.474;2023-05-14T09:49:52;15.82;;;7.68;;
72611;SDS011;60655;52.182;4.474;2023-05-14T09:51:53;16.55;;;7.10;;
72611;SDS011;60655;52.182;4.474;2023-05-14T09:53:56;18.08;;;7.75;;
72611;SDS011;60655;52.182;4.474;2023-05-14T09:55:57;19.85;;;8.23;;
72611;SDS011;60655;52.182;4.474;2023-05-14T09:57:58;27.13;;;7.85;;
72611;SDS011;60655;52.182;4.474;2023-05-14T09:59:59;19.15;;;7.78;;
72611;SDS011;60655;52.182;4.474;2023-05-14T10:02:00;16.73;;;6.20;;
72611;SDS011;60655;52.182;4.474;2023-05-14T10:04:02;13.93;;;6.70;;
72611;SDS011;60655;52.182;4.474;2023-05-14T10:06:06;20.05;;;7.50;;
72611;SDS011;60655;52.182;4.474;2023-05-14T10:08:13;21.25;;;7.25;;
72611;SDS011;60655;52.182;4.474;2023-05-14T10:10:26;14.52;;;7.10;;
72611;SDS011;60655;52.182;4.474;2023-05-14T10:12:31;19.80;;;7.57;;
72611;SDS011;60655;52.182;4.474;2023-05-14T10:18:46;16.20;;;5.85;;
72611;SDS011;60655;52.182;4.474;2023-05-14T10:21:02;18.05;;;5.60;;
72611;SDS011;60655;52.182;4.474;2023-05-14T10:23:05;15.80;;;6.05;;
72611;SDS011;60655;52.182;4.474;2023-05-14T10:25:07;16.92;;;5.80;;
72611;SDS011;60655;52.182;4.474;2023-05-14T10:27:08;16.85;;;6.85;;
72611;SDS011;60655;52.182;4.474;2023-05-14T10:29:10;14.02;;;5.70;;
72611;SDS011;60655;52.182;4.474;2023-05-14T10:31:12;16.88;;;6.30;;
72611;SDS011;60655;52.182;4.474;2023-05-14T10:33:21;19.23;;;7.30;;
72611;SDS011;60655;52.182;4.474;2023-05-14T10:35:22;19.33;;;6.68;;
72611;SDS011;60655;52.182;4.474;2023-05-14T10:37:26;14.65;;;6.00;;
72611;SDS011;60655;52.182;4.474;2023-05-14T10:41:50;12.40;;;5.88;;
72611;SDS011;60655;52.182;4.474;2023-05-14T10:43:52;17.05;;;6.50;;
72611;SDS011;60655;52.182;4.474;2023-05-14T10:45:53;20.58;;;7.28;;
72611;SDS011;60655;52.182;4.474;2023-05-14T10:47:55;20.77;;;6.90;;
72611;SDS011;60655;52.182;4.474;2023-05-14T10:49:57;14.73;;;6.18;;
72611;SDS011;60655;52.182;4.474;2023-05-14T10:51:59;19.20;;;6.95;;
72611;SDS011;60655;52.182;4.474;2023-05-14T10:54:01;21.48;;;6.00;;
72611;SDS011;60655;52.182;4.474;2023-05-14T10:56:09;18.00;;;6.30;;
72611;SDS011;60655;52.182;4.474;2023-05-14T10:58:12;16.33;;;6.45;;
72611;SDS011;60655;52.182;4.474;2023-05-14T11:00:13;17.98;;;6.38;;
72611;SDS011;60655;52.182;4.474;2023-05-14T11:02:57;13.20;;;6.72;;
72611;SDS011;60655;52.182;4.474;2023-05-14T11:04:40;16.13;;;6.45;;
72611;SDS011;60655;52.182;4.474;2023-05-14T11:06:41;17.92;;;6.90;;
72611;SDS011;60655;52.182;4.474;2023-05-14T11:08:43;13.82;;;6.65;;
72611;SDS011;60655;52.182;4.474;2023-05-14T11:10:45;17.45;;;7.38;;
72611;SDS011;60655;52.182;4.474;2023-05-14T11:12:47;15.52;;;6.95;;
72611;SDS011;60655;52.182;4.474;2023-05-14T11:14:50;17.45;;;6.53;;
72611;SDS011;60655;52.182;4.474;2023-05-14T11:16:51;17.02;;;7.18;;
72611;SDS011;60655;52.182;4.474;2023-05-14T11:18:53;14.02;;;5.82;;
72611;SDS011;60655;52.182;4.474;2023-05-14T11:21:02;15.55;;;5.50;;
72611;SDS011;60655;52.182;4.474;2023-05-14T11:23:03;17.08;;;6.22;;
72611;SDS011;60655;52.182;4.474;2023-05-14T11:25:04;17.20;;;6.60;;
72611;SDS011;60655;52.182;4.474;2023-05-14T11:27:07;16.75;;;6.82;;
72611;SDS011;60655;52.182;4.474;2023-05-14T11:29:08;17.50;;;7.05;;
72611;SDS011;60655;52.182;4.474;2023-05-14T11:31:10;17.13;;;6.07;;
72611;SDS011;60655;52.182;4.474;2023-05-14T11:33:11;14.80;;;5.90;;
72611;SDS011;60655;52.182;4.474;2023-05-14T11:35:12;17.67;;;7.47;;
72611;SDS011;60655;52.182;4.474;2023-05-14T11:37:14;15.05;;;5.55;;
72611;SDS011;60655;52.182;4.474;2023-05-14T11:39:16;14.35;;;6.47;;
72611;SDS011;60655;52.182;4.474;2023-05-14T11:41:18;13.88;;;6.28;;
72611;SDS011;60655;52.182;4.474;2023-05-14T11:43:22;17.70;;;6.68;;
72611;SDS011;60655;52.182;4.474;2023-05-14T11:45:23;15.35;;;6.45;;
72611;SDS011;60655;52.182;4.474;2023-05-14T11:47:27;14.55;;;6.45;;
72611;SDS011;60655;52.182;4.474;2023-05-14T11:49:29;21.15;;;6.47;;
72611;SDS011;60655;52.182;4.474;2023-05-14T11:51:32;16.98;;;6.57;;
72611;SDS011;60655;52.182;4.474;2023-05-14T11:53:32;16.70;;;6.43;;
72611;SDS011;60655;52.182;4.474;2023-05-14T11:55:34;15.32;;;6.00;;
72611;SDS011;60655;52.182;4.474;2023-05-14T11:57:35;15.48;;;6.28;;
72611;SDS011;60655;52.182;4.474;2023-05-14T11:59:36;14.68;;;6.10;;
72611;SDS011;60655;52.182;4.474;2023-05-14T12:01:38;12.60;;;5.65;;
72611;SDS011;60655;52.182;4.474;2023-05-14T12:03:39;15.00;;;6.45;;
72611;SDS011;60655;52.182;4.474;2023-05-14T12:05:40;15.23;;;5.40;;
72611;SDS011;60655;52.182;4.474;2023-05-14T12:07:53;15.82;;;5.82;;
72611;SDS011;60655;52.182;4.474;2023-05-14T12:09:59;13.90;;;5.63;;
72611;SDS011;60655;52.182;4.474;2023-05-14T12:12:06;15.70;;;5.22;;